Aérodrome :
LOGIN :

S'inscrire | Disclaimer

   EN    FR    IT 

 










Légende :    VFR   VFR Marginal   IFR   IFR Intensif   IFR Très Intensif
Visi : 
Plafond : 
>= 8 km
>= 3000ft
5 à 8 km
1000 à 3000 ft
1500m à 5 km
500 à 1000 ft
800 à 1500m
200 à 500 ft
< 800m
< 200 ft
Symboles :   Orages  Brouillard  Fortes neiges  Fortes précipitations  Vent > 20 kt
SIGMETs :   Divers  Orages  Givrage  Turbulence  Onde Orograph.  Cendres Volcan.







- Altitude de l'aérodrome : 102 ft
- Code IATA : CNG
- Voir les cartes d'approche


LFBG - Cognac

DERNIER METAR :
  • 211200Z AUTO 36006KT 300V050 CAVOK 29/17 Q1019 NOSIG

METARs EXPIRÉS :
  • 211130Z AUTO 03007KT 360V070 CAVOK 29/17 Q1019 NOSIG
  • 211100Z AUTO 01007KT 330V050 CAVOK 28/16 Q1019 NOSIG
  • 211030Z AUTO 02008KT 340V050 CAVOK 28/16 Q1019 NOSIG
  • 211000Z AUTO 02008KT 350V050 CAVOK 28/17 Q1019 NOSIG
  • 210930Z AUTO 02007KT 350V050 CAVOK 27/16 Q1019 NOSIG

TAF TAF LFBG
Valide du 21 à 09h jusqu'au 22 à 09h UTC


210800Z 2109/2209 01008KT CAVOK
BECMG 2121/2123 04015KT
Pas de NOTAMs connus pour ce terrain.



MET'MAP, la Météo Aéronautique d'un coup d'oeil ! - Copyright ORBIFLY Décembre 2007 - Disclaimer

ORBIFLY MET'MAP TEAM :

Programmation & Développement : Alexandra Zaïnal
Conception & Développement : Baudouin d'Aumeries
Co-Programmation & Développement : Marc-Olivier Méhu
Soutien technique & logistique : Manuel Goepfert

Contact : metmap@orbifly.com




SOURCES & CREDITS :

   NOAA